TimeCST,TemperatureF,Dew PointF,Humidity,Sea Level PressureIn,VisibilityMPH,Wind Direction,Wind SpeedMPH,Gust SpeedMPH,PrecipitationIn,Events,Conditions,WindDirDegrees,DateUTC
12:53 AM,62.1,62.1,100,29.84,0.2,West,3.5,-,N/A,Fog,Fog,280,2012-12-17 06:53:00
1:53 AM,61.0,61.0,100,29.84,0.2,Calm,Calm,-,N/A,Fog,Fog,0,2012-12-17 07:53:00
2:37 AM,59.0,59.0,100,29.84,0.5,Calm,Calm,-,N/A,Fog,Fog,0,2012-12-17 08:37:00
2:53 AM,57.9,57.9,100,29.84,0.5,Calm,Calm,-,N/A,Fog,Fog,0,2012-12-17 08:53:00
2:58 AM,57.2,57.2,100,29.84,0.8,West,3.5,-,N/A,,Mist,260,2012-12-17 08:58:00
3:02 AM,57.2,57.2,100,29.84,2.0,WSW,3.5,-,N/A,,Mist,250,2012-12-17 09:02:00
3:15 AM,57.2,57.2,100,29.84,5.0,West,3.5,-,N/A,,Clear,260,2012-12-17 09:15:00
3:53 AM,57.9,57.0,97,29.84,10.0,WSW,5.8,-,N/A,,Clear,250,2012-12-17 09:53:00
4:53 AM,57.9,53.1,84,29.86,10.0,West,8.1,-,N/A,,Clear,260,2012-12-17 10:53:00
5:53 AM,57.9,51.1,78,29.86,10.0,West,5.8,-,N/A,,Scattered Clouds,270,2012-12-17 11:53:00
6:53 AM,57.0,46.9,69,29.88,10.0,West,6.9,-,N/A,,Mostly Cloudy,270,2012-12-17 12:53:00
7:53 AM,55.9,46.0,69,29.91,10.0,West,5.8,-,N/A,,Scattered Clouds,270,2012-12-17 13:53:00
8:53 AM,59.0,45.0,60,29.92,10.0,WNW,10.4,-,N/A,,Scattered Clouds,290,2012-12-17 14:53:00
9:53 AM,63.0,37.9,40,29.94,10.0,NW,11.5,21.9,N/A,,Partly Cloudy,310,2012-12-17 15:53:00
10:53 AM,64.9,37.9,37,29.94,10.0,WNW,13.8,19.6,N/A,,Partly Cloudy,300,2012-12-17 16:53:00
11:53 AM,66.0,34.0,30,29.92,10.0,NW,11.5,-,N/A,,Clear,310,2012-12-17 17:53:00
12:53 PM,68.0,33.1,27,29.89,10.0,WNW,11.5,-,N/A,,Clear,300,2012-12-17 18:53:00
1:53 PM,69.1,33.1,26,29.86,10.0,WNW,10.4,-,N/A,,Clear,290,2012-12-17 19:53:00
2:53 PM,69.1,30.9,24,29.86,10.0,WNW,11.5,-,N/A,,Clear,300,2012-12-17 20:53:00
3:53 PM,68.0,33.1,27,29.88,10.0,WNW,10.4,-,N/A,,Clear,300,2012-12-17 21:53:00
6:53 PM,54.0,42.1,64,29.91,10.0,Calm,Calm,-,N/A,,Clear,0,2012-12-18 00:53:00
7:53 PM,50.0,42.1,74,29.91,10.0,Calm,Calm,-,N/A,,Clear,0,2012-12-18 01:53:00
8:53 PM,48.9,42.1,77,29.92,10.0,Calm,Calm,-,N/A,,Clear,0,2012-12-18 02:53:00
9:53 PM,46.9,42.1,83,29.93,10.0,Calm,Calm,-,N/A,,Clear,0,2012-12-18 03:53:00
10:53 PM,46.0,41.0,83,29.93,10.0,Calm,Calm,-,N/A,,Clear,0,2012-12-18 04:53:00
11:53 PM,46.9,41.0,80,29.93,10.0,SSE,3.5,-,N/A,,Clear,160,2012-12-18 05:53:00